sensor_id;sensor_type;location;lat;lon;timestamp;P1;durP1;ratioP1;P2;durP2;ratioP2
51995;SDS011;38010;53.264;6.592;2022-11-20T00:01:11;2.45;;;2.05;;
51995;SDS011;38010;53.264;6.592;2022-11-20T00:03:39;2.13;;;1.70;;
51995;SDS011;38010;53.264;6.592;2022-11-20T00:06:06;1.67;;;1.58;;
51995;SDS011;38010;53.264;6.592;2022-11-20T00:08:34;2.05;;;1.85;;
51995;SDS011;38010;53.264;6.592;2022-11-20T00:11:04;1.88;;;1.50;;
51995;SDS011;38010;53.264;6.592;2022-11-20T00:13:31;3.10;;;1.90;;
51995;SDS011;38010;53.264;6.592;2022-11-20T00:15:57;1.65;;;1.55;;
51995;SDS011;38010;53.264;6.592;2022-11-20T00:18:24;1.70;;;1.60;;
51995;SDS011;38010;53.264;6.592;2022-11-20T00:20:50;1.88;;;1.70;;
51995;SDS011;38010;53.264;6.592;2022-11-20T00:23:16;2.10;;;1.70;;
51995;SDS011;38010;53.264;6.592;2022-11-20T00:25:41;2.00;;;1.75;;
51995;SDS011;38010;53.264;6.592;2022-11-20T00:28:07;1.98;;;1.70;;
51995;SDS011;38010;53.264;6.592;2022-11-20T00:30:33;1.70;;;1.60;;
51995;SDS011;38010;53.264;6.592;2022-11-20T00:32:58;2.10;;;1.90;;
51995;SDS011;38010;53.264;6.592;2022-11-20T00:35:24;2.20;;;1.60;;
51995;SDS011;38010;53.264;6.592;2022-11-20T00:37:50;2.33;;;2.03;;
51995;SDS011;38010;53.264;6.592;2022-11-20T00:40:15;1.98;;;1.77;;
51995;SDS011;38010;53.264;6.592;2022-11-20T00:42:41;1.70;;;1.48;;
51995;SDS011;38010;53.264;6.592;2022-11-20T00:45:07;2.03;;;1.83;;
51995;SDS011;38010;53.264;6.592;2022-11-20T00:47:33;2.35;;;2.03;;
51995;SDS011;38010;53.264;6.592;2022-11-20T00:49:59;2.20;;;2.00;;
51995;SDS011;38010;53.264;6.592;2022-11-20T00:52:24;2.00;;;1.80;;
51995;SDS011;38010;53.264;6.592;2022-11-20T00:54:50;2.25;;;1.95;;
51995;SDS011;38010;53.264;6.592;2022-11-20T00:57:16;1.98;;;1.77;;
51995;SDS011;38010;53.264;6.592;2022-11-20T00:59:41;1.73;;;1.60;;
51995;SDS011;38010;53.264;6.592;2022-11-20T01:02:07;2.33;;;1.90;;
51995;SDS011;38010;53.264;6.592;2022-11-20T01:04:33;1.67;;;1.50;;
51995;SDS011;38010;53.264;6.592;2022-11-20T01:06:58;1.83;;;1.73;;
51995;SDS011;38010;53.264;6.592;2022-11-20T01:09:24;1.92;;;1.65;;
51995;SDS011;38010;53.264;6.592;2022-11-20T01:11:50;1.70;;;1.50;;
51995;SDS011;38010;53.264;6.592;2022-11-20T01:14:17;1.90;;;1.60;;
51995;SDS011;38010;53.264;6.592;2022-11-20T01:16:45;1.92;;;1.80;;
51995;SDS011;38010;53.264;6.592;2022-11-20T01:19:14;1.77;;;1.65;;
51995;SDS011;38010;53.264;6.592;2022-11-20T01:21:42;2.15;;;1.95;;
51995;SDS011;38010;53.264;6.592;2022-11-20T01:24:13;2.15;;;1.70;;
51995;SDS011;38010;53.264;6.592;2022-11-20T01:26:40;1.42;;;1.33;;
51995;SDS011;38010;53.264;6.592;2022-11-20T01:29:09;1.50;;;1.40;;
51995;SDS011;38010;53.264;6.592;2022-11-20T01:31:40;2.17;;;1.70;;
51995;SDS011;38010;53.264;6.592;2022-11-20T01:34:07;1.60;;;1.50;;
51995;SDS011;38010;53.264;6.592;2022-11-20T01:36:35;2.00;;;1.80;;
51995;SDS011;38010;53.264;6.592;2022-11-20T01:39:04;1.85;;;1.63;;
51995;SDS011;38010;53.264;6.592;2022-11-20T01:41:33;1.80;;;1.40;;
51995;SDS011;38010;53.264;6.592;2022-11-20T01:44:20;1.80;;;1.70;;
51995;SDS011;38010;53.264;6.592;2022-11-20T01:47:04;1.98;;;1.70;;
51995;SDS011;38010;53.264;6.592;2022-11-20T01:52:07;1.90;;;1.50;;
51995;SDS011;38010;53.264;6.592;2022-11-20T01:54:46;1.85;;;1.52;;
51995;SDS011;38010;53.264;6.592;2022-11-20T01:57:17;1.67;;;1.48;;
51995;SDS011;38010;53.264;6.592;2022-11-20T01:59:51;1.65;;;1.55;;
51995;SDS011;38010;53.264;6.592;2022-11-20T02:02:22;1.63;;;1.52;;
51995;SDS011;38010;53.264;6.592;2022-11-20T02:04:48;1.70;;;1.60;;
51995;SDS011;38010;53.264;6.592;2022-11-20T02:07:16;1.58;;;1.40;;
51995;SDS011;38010;53.264;6.592;2022-11-20T02:09:43;1.95;;;1.60;;
51995;SDS011;38010;53.264;6.592;2022-11-20T02:12:09;1.95;;;1.60;;
51995;SDS011;38010;53.264;6.592;2022-11-20T02:14:55;1.63;;;1.38;;
51995;SDS011;38010;53.264;6.592;2022-11-20T02:17:22;1.60;;;1.50;;
51995;SDS011;38010;53.264;6.592;2022-11-20T02:19:49;1.60;;;1.50;;
51995;SDS011;38010;53.264;6.592;2022-11-20T02:22:17;2.10;;;1.48;;
51995;SDS011;38010;53.264;6.592;2022-11-20T02:24:49;1.60;;;1.40;;
51995;SDS011;38010;53.264;6.592;2022-11-20T02:27:16;1.60;;;1.50;;
51995;SDS011;38010;53.264;6.592;2022-11-20T02:29:53;1.30;;;1.20;;
51995;SDS011;38010;53.264;6.592;2022-11-20T02:32:26;1.83;;;1.50;;
51995;SDS011;38010;53.264;6.592;2022-11-20T02:34:53;2.00;;;1.70;;
51995;SDS011;38010;53.264;6.592;2022-11-20T02:37:19;1.58;;;1.42;;
51995;SDS011;38010;53.264;6.592;2022-11-20T02:39:46;1.60;;;1.50;;
51995;SDS011;38010;53.264;6.592;2022-11-20T02:42:14;1.70;;;1.58;;
51995;SDS011;38010;53.264;6.592;2022-11-20T02:44:40;1.52;;;1.40;;
51995;SDS011;38010;53.264;6.592;2022-11-20T02:47:05;1.83;;;1.45;;
51995;SDS011;38010;53.264;6.592;2022-11-20T02:49:31;2.13;;;1.70;;
51995;SDS011;38010;53.264;6.592;2022-11-20T02:51:58;1.40;;;1.30;;
51995;SDS011;38010;53.264;6.592;2022-11-20T02:54:24;1.40;;;1.30;;
51995;SDS011;38010;53.264;6.592;2022-11-20T02:56:50;1.65;;;1.30;;
51995;SDS011;38010;53.264;6.592;2022-11-20T02:59:16;1.55;;;1.40;;
51995;SDS011;38010;53.264;6.592;2022-11-20T03:01:42;1.80;;;1.30;;
51995;SDS011;38010;53.264;6.592;2022-11-20T03:04:07;1.30;;;1.20;;
51995;SDS011;38010;53.264;6.592;2022-11-20T03:06:33;1.48;;;1.38;;
51995;SDS011;38010;53.264;6.592;2022-11-20T03:08:59;1.70;;;1.30;;
51995;SDS011;38010;53.264;6.592;2022-11-20T03:11:24;1.45;;;1.30;;
51995;SDS011;38010;53.264;6.592;2022-11-20T03:13:50;1.40;;;1.30;;
51995;SDS011;38010;53.264;6.592;2022-11-20T03:16:17;1.45;;;1.35;;
51995;SDS011;38010;53.264;6.592;2022-11-20T03:18:45;2.08;;;1.88;;
51995;SDS011;38010;53.264;6.592;2022-11-20T03:21:11;1.80;;;1.63;;
51995;SDS011;38010;53.264;6.592;2022-11-20T03:23:38;1.25;;;1.10;;
51995;SDS011;38010;53.264;6.592;2022-11-20T03:28:51;1.58;;;1.42;;
51995;SDS011;38010;53.264;6.592;2022-11-20T03:31:20;1.45;;;1.35;;
51995;SDS011;38010;53.264;6.592;2022-11-20T03:33:47;1.30;;;1.20;;
51995;SDS011;38010;53.264;6.592;2022-11-20T03:36:13;1.50;;;1.30;;
51995;SDS011;38010;53.264;6.592;2022-11-20T03:38:41;1.38;;;1.20;;
51995;SDS011;38010;53.264;6.592;2022-11-20T03:41:09;1.42;;;1.33;;
51995;SDS011;38010;53.264;6.592;2022-11-20T03:43:37;1.70;;;1.38;;
51995;SDS011;38010;53.264;6.592;2022-11-20T03:46:03;1.33;;;1.17;;
51995;SDS011;38010;53.264;6.592;2022-11-20T03:48:30;1.30;;;1.20;;
51995;SDS011;38010;53.264;6.592;2022-11-20T03:51:08;1.20;;;1.10;;
51995;SDS011;38010;53.264;6.592;2022-11-20T03:53:35;1.30;;;1.17;;
51995;SDS011;38010;53.264;6.592;2022-11-20T03:56:01;1.52;;;1.35;;
51995;SDS011;38010;53.264;6.592;2022-11-20T03:58:27;1.13;;;1.02;;
51995;SDS011;38010;53.264;6.592;2022-11-20T04:00:53;1.33;;;1.10;;
51995;SDS011;38010;53.264;6.592;2022-11-20T04:03:19;1.50;;;1.35;;
51995;SDS011;38010;53.264;6.592;2022-11-20T04:05:44;1.10;;;1.00;;
51995;SDS011;38010;53.264;6.592;2022-11-20T04:08:10;0.98;;;0.98;;
51995;SDS011;38010;53.264;6.592;2022-11-20T04:10:35;1.20;;;1.10;;
51995;SDS011;38010;53.264;6.592;2022-11-20T04:13:01;1.23;;;1.13;;
51995;SDS011;38010;53.264;6.592;2022-11-20T04:15:27;1.40;;;1.08;;
51995;SDS011;38010;53.264;6.592;2022-11-20T04:17:53;1.30;;;1.20;;
51995;SDS011;38010;53.264;6.592;2022-11-20T04:20:19;1.27;;;1.17;;
51995;SDS011;38010;53.264;6.592;2022-11-20T04:22:44;1.20;;;1.10;;
51995;SDS011;38010;53.264;6.592;2022-11-20T04:25:10;1.15;;;1.00;;
51995;SDS011;38010;53.264;6.592;2022-11-20T04:27:36;1.05;;;0.90;;
51995;SDS011;38010;53.264;6.592;2022-11-20T04:30:02;1.33;;;1.10;;
51995;SDS011;38010;53.264;6.592;2022-11-20T04:32:27;1.15;;;1.08;;
51995;SDS011;38010;53.264;6.592;2022-11-20T04:34:53;1.10;;;1.00;;
51995;SDS011;38010;53.264;6.592;2022-11-20T04:37:19;1.13;;;1.00;;
51995;SDS011;38010;53.264;6.592;2022-11-20T04:39:44;0.93;;;0.90;;
51995;SDS011;38010;53.264;6.592;2022-11-20T04:42:10;1.02;;;0.93;;
51995;SDS011;38010;53.264;6.592;2022-11-20T04:44:54;1.27;;;1.17;;
51995;SDS011;38010;53.264;6.592;2022-11-20T04:47:20;1.10;;;1.00;;
51995;SDS011;38010;53.264;6.592;2022-11-20T04:49:46;1.02;;;0.90;;
51995;SDS011;38010;53.264;6.592;2022-11-20T04:52:12;0.82;;;0.70;;
51995;SDS011;38010;53.264;6.592;2022-11-20T04:54:38;1.40;;;1.00;;
51995;SDS011;38010;53.264;6.592;2022-11-20T04:57:03;1.10;;;1.00;;
51995;SDS011;38010;53.264;6.592;2022-11-20T04:59:29;1.20;;;1.00;;
51995;SDS011;38010;53.264;6.592;2022-11-20T05:01:55;0.90;;;0.80;;
51995;SDS011;38010;53.264;6.592;2022-11-20T05:04:21;1.48;;;1.10;;
51995;SDS011;38010;53.264;6.592;2022-11-20T05:06:46;1.10;;;1.00;;
51995;SDS011;38010;53.264;6.592;2022-11-20T05:09:12;1.52;;;1.00;;
51995;SDS011;38010;53.264;6.592;2022-11-20T05:11:38;0.95;;;0.80;;
51995;SDS011;38010;53.264;6.592;2022-11-20T05:14:04;0.73;;;0.73;;
51995;SDS011;38010;53.264;6.592;2022-11-20T05:16:29;1.23;;;0.90;;
51995;SDS011;38010;53.264;6.592;2022-11-20T05:18:55;1.13;;;0.90;;
51995;SDS011;38010;53.264;6.592;2022-11-20T05:21:21;1.13;;;0.80;;
51995;SDS011;38010;53.264;6.592;2022-11-20T05:23:47;1.10;;;1.00;;
51995;SDS011;38010;53.264;6.592;2022-11-20T05:26:20;0.93;;;0.90;;
51995;SDS011;38010;53.264;6.592;2022-11-20T05:28:47;0.80;;;0.80;;
51995;SDS011;38010;53.264;6.592;2022-11-20T05:31:14;0.95;;;0.90;;
51995;SDS011;38010;53.264;6.592;2022-11-20T05:33:42;1.45;;;0.82;;
51995;SDS011;38010;53.264;6.592;2022-11-20T05:36:09;0.95;;;0.90;;
51995;SDS011;38010;53.264;6.592;2022-11-20T05:38:36;1.00;;;0.90;;
51995;SDS011;38010;53.264;6.592;2022-11-20T05:41:07;1.13;;;0.82;;
51995;SDS011;38010;53.264;6.592;2022-11-20T05:43:33;0.88;;;0.88;;
51995;SDS011;38010;53.264;6.592;2022-11-20T05:45:59;1.00;;;0.90;;
51995;SDS011;38010;53.264;6.592;2022-11-20T05:48:26;1.02;;;0.93;;
51995;SDS011;38010;53.264;6.592;2022-11-20T05:50:51;1.15;;;0.88;;
51995;SDS011;38010;53.264;6.592;2022-11-20T05:53:17;0.98;;;0.80;;
51995;SDS011;38010;53.264;6.592;2022-11-20T05:55:43;1.02;;;0.80;;
51995;SDS011;38010;53.264;6.592;2022-11-20T05:58:08;0.75;;;0.75;;
51995;SDS011;38010;53.264;6.592;2022-11-20T06:00:34;0.80;;;0.80;;
51995;SDS011;38010;53.264;6.592;2022-11-20T06:03:00;1.23;;;0.88;;
51995;SDS011;38010;53.264;6.592;2022-11-20T06:05:26;0.93;;;0.80;;
51995;SDS011;38010;53.264;6.592;2022-11-20T06:07:52;0.82;;;0.80;;
51995;SDS011;38010;53.264;6.592;2022-11-20T06:10:18;0.90;;;0.80;;
51995;SDS011;38010;53.264;6.592;2022-11-20T06:12:43;0.95;;;0.85;;
51995;SDS011;38010;53.264;6.592;2022-11-20T06:15:09;1.30;;;0.80;;
51995;SDS011;38010;53.264;6.592;2022-11-20T06:17:35;0.77;;;0.77;;
51995;SDS011;38010;53.264;6.592;2022-11-20T06:20:01;1.02;;;0.93;;
51995;SDS011;38010;53.264;6.592;2022-11-20T06:22:26;0.98;;;0.80;;
51995;SDS011;38010;53.264;6.592;2022-11-20T06:24:52;1.25;;;0.88;;
51995;SDS011;38010;53.264;6.592;2022-11-20T06:27:18;1.05;;;0.95;;
51995;SDS011;38010;53.264;6.592;2022-11-20T06:29:43;1.30;;;0.80;;
51995;SDS011;38010;53.264;6.592;2022-11-20T06:32:09;0.82;;;0.82;;
51995;SDS011;38010;53.264;6.592;2022-11-20T06:34:35;0.68;;;0.65;;
51995;SDS011;38010;53.264;6.592;2022-11-20T06:37:01;0.93;;;0.90;;
51995;SDS011;38010;53.264;6.592;2022-11-20T06:39:26;0.80;;;0.80;;
51995;SDS011;38010;53.264;6.592;2022-11-20T06:41:52;0.68;;;0.68;;
51995;SDS011;38010;53.264;6.592;2022-11-20T06:44:18;0.88;;;0.80;;
51995;SDS011;38010;53.264;6.592;2022-11-20T06:46:43;0.77;;;0.70;;
51995;SDS011;38010;53.264;6.592;2022-11-20T06:49:09;0.80;;;0.75;;
51995;SDS011;38010;53.264;6.592;2022-11-20T06:51:34;0.75;;;0.70;;
51995;SDS011;38010;53.264;6.592;2022-11-20T06:54:00;0.95;;;0.70;;
51995;SDS011;38010;53.264;6.592;2022-11-20T06:56:26;0.80;;;0.80;;
51995;SDS011;38010;53.264;6.592;2022-11-20T06:58:52;0.95;;;0.90;;
51995;SDS011;38010;53.264;6.592;2022-11-20T07:01:17;0.80;;;0.70;;
51995;SDS011;38010;53.264;6.592;2022-11-20T07:03:43;0.88;;;0.80;;
51995;SDS011;38010;53.264;6.592;2022-11-20T07:06:09;0.82;;;0.80;;
51995;SDS011;38010;53.264;6.592;2022-11-20T07:08:35;0.70;;;0.70;;
51995;SDS011;38010;53.264;6.592;2022-11-20T07:11:02;0.80;;;0.80;;
51995;SDS011;38010;53.264;6.592;2022-11-20T07:13:30;0.85;;;0.68;;
51995;SDS011;38010;53.264;6.592;2022-11-20T07:16:03;0.95;;;0.85;;
51995;SDS011;38010;53.264;6.592;2022-11-20T07:18:32;0.80;;;0.80;;
51995;SDS011;38010;53.264;6.592;2022-11-20T07:21:05;0.65;;;0.60;;
51995;SDS011;38010;53.264;6.592;2022-11-20T07:23:32;0.70;;;0.68;;
51995;SDS011;38010;53.264;6.592;2022-11-20T07:26:02;0.77;;;0.77;;
51995;SDS011;38010;53.264;6.592;2022-11-20T07:28:31;0.95;;;0.80;;
51995;SDS011;38010;53.264;6.592;2022-11-20T07:30:58;1.38;;;0.90;;
51995;SDS011;38010;53.264;6.592;2022-11-20T07:33:24;0.80;;;0.73;;
51995;SDS011;38010;53.264;6.592;2022-11-20T07:35:50;1.00;;;0.90;;
51995;SDS011;38010;53.264;6.592;2022-11-20T07:38:16;0.85;;;0.73;;
51995;SDS011;38010;53.264;6.592;2022-11-20T07:40:42;1.92;;;0.80;;
51995;SDS011;38010;53.264;6.592;2022-11-20T07:43:08;1.33;;;0.90;;
51995;SDS011;38010;53.264;6.592;2022-11-20T07:45:34;0.60;;;0.60;;
51995;SDS011;38010;53.264;6.592;2022-11-20T07:48:01;0.88;;;0.80;;
51995;SDS011;38010;53.264;6.592;2022-11-20T07:50:27;1.05;;;0.77;;
51995;SDS011;38010;53.264;6.592;2022-11-20T07:52:59;0.70;;;0.70;;
51995;SDS011;38010;53.264;6.592;2022-11-20T07:55:26;1.00;;;0.80;;
51995;SDS011;38010;53.264;6.592;2022-11-20T07:57:55;1.42;;;0.73;;
51995;SDS011;38010;53.264;6.592;2022-11-20T08:00:22;0.65;;;0.60;;
51995;SDS011;38010;53.264;6.592;2022-11-20T08:02:48;0.70;;;0.70;;
51995;SDS011;38010;53.264;6.592;2022-11-20T08:05:14;0.90;;;0.80;;
51995;SDS011;38010;53.264;6.592;2022-11-20T08:07:41;0.82;;;0.82;;
51995;SDS011;38010;53.264;6.592;2022-11-20T08:10:08;0.70;;;0.70;;
51995;SDS011;38010;53.264;6.592;2022-11-20T08:12:35;0.60;;;0.60;;
51995;SDS011;38010;53.264;6.592;2022-11-20T08:15:19;0.60;;;0.60;;
51995;SDS011;38010;53.264;6.592;2022-11-20T08:17:45;0.90;;;0.80;;
51995;SDS011;38010;53.264;6.592;2022-11-20T08:20:11;0.65;;;0.60;;
51995;SDS011;38010;53.264;6.592;2022-11-20T08:22:37;0.80;;;0.68;;
51995;SDS011;38010;53.264;6.592;2022-11-20T08:25:02;1.00;;;0.85;;
51995;SDS011;38010;53.264;6.592;2022-11-20T08:27:28;1.13;;;0.75;;
51995;SDS011;38010;53.264;6.592;2022-11-20T08:29:56;0.75;;;0.70;;
51995;SDS011;38010;53.264;6.592;2022-11-20T08:32:21;0.88;;;0.73;;
51995;SDS011;38010;53.264;6.592;2022-11-20T08:34:47;2.50;;;0.75;;
51995;SDS011;38010;53.264;6.592;2022-11-20T08:37:13;1.23;;;0.70;;
51995;SDS011;38010;53.264;6.592;2022-11-20T08:39:38;0.75;;;0.60;;
51995;SDS011;38010;53.264;6.592;2022-11-20T08:42:07;0.80;;;0.75;;
51995;SDS011;38010;53.264;6.592;2022-11-20T08:44:33;1.10;;;0.80;;
51995;SDS011;38010;53.264;6.592;2022-11-20T08:46:59;0.90;;;0.77;;
51995;SDS011;38010;53.264;6.592;2022-11-20T08:49:25;0.80;;;0.80;;
51995;SDS011;38010;53.264;6.592;2022-11-20T08:51:51;1.50;;;0.90;;
51995;SDS011;38010;53.264;6.592;2022-11-20T08:54:20;0.77;;;0.77;;
51995;SDS011;38010;53.264;6.592;2022-11-20T08:56:47;2.20;;;0.85;;
51995;SDS011;38010;53.264;6.592;2022-11-20T08:59:13;0.90;;;0.70;;
51995;SDS011;38010;53.264;6.592;2022-11-20T09:01:38;1.13;;;0.80;;
51995;SDS011;38010;53.264;6.592;2022-11-20T09:04:04;0.70;;;0.70;;
51995;SDS011;38010;53.264;6.592;2022-11-20T09:06:30;0.68;;;0.68;;
51995;SDS011;38010;53.264;6.592;2022-11-20T09:08:56;1.00;;;0.90;;
51995;SDS011;38010;53.264;6.592;2022-11-20T09:11:22;1.13;;;0.70;;
51995;SDS011;38010;53.264;6.592;2022-11-20T09:13:48;1.00;;;0.90;;
51995;SDS011;38010;53.264;6.592;2022-11-20T09:16:13;1.25;;;0.90;;
51995;SDS011;38010;53.264;6.592;2022-11-20T09:18:39;0.70;;;0.70;;
51995;SDS011;38010;53.264;6.592;2022-11-20T09:21:06;3.03;;;0.90;;
51995;SDS011;38010;53.264;6.592;2022-11-20T09:23:36;0.75;;;0.75;;
51995;SDS011;38010;53.264;6.592;2022-11-20T09:26:06;0.90;;;0.82;;
51995;SDS011;38010;53.264;6.592;2022-11-20T09:28:35;1.83;;;0.98;;
51995;SDS011;38010;53.264;6.592;2022-11-20T09:31:03;1.30;;;1.00;;
51995;SDS011;38010;53.264;6.592;2022-11-20T09:33:34;1.27;;;0.90;;
51995;SDS011;38010;53.264;6.592;2022-11-20T09:36:00;1.33;;;0.90;;
51995;SDS011;38010;53.264;6.592;2022-11-20T09:38:26;1.25;;;1.00;;
51995;SDS011;38010;53.264;6.592;2022-11-20T09:41:00;1.08;;;0.88;;
51995;SDS011;38010;53.264;6.592;2022-11-20T09:46:31;1.45;;;0.90;;
51995;SDS011;38010;53.264;6.592;2022-11-20T09:49:38;1.00;;;0.90;;
51995;SDS011;38010;53.264;6.592;2022-11-20T09:52:31;1.02;;;0.82;;
51995;SDS011;38010;53.264;6.592;2022-11-20T09:55:30;0.98;;;0.80;;
51995;SDS011;38010;53.264;6.592;2022-11-20T09:57:57;1.00;;;0.90;;
51995;SDS011;38010;53.264;6.592;2022-11-20T10:00:24;1.10;;;0.98;;
51995;SDS011;38010;53.264;6.592;2022-11-20T10:05:26;0.75;;;0.70;;
51995;SDS011;38010;53.264;6.592;2022-11-20T10:10:47;1.70;;;0.90;;
51995;SDS011;38010;53.264;6.592;2022-11-20T10:24:28;0.95;;;0.82;;
51995;SDS011;38010;53.264;6.592;2022-11-20T10:27:14;0.75;;;0.70;;
51995;SDS011;38010;53.264;6.592;2022-11-20T10:29:41;0.80;;;0.80;;
51995;SDS011;38010;53.264;6.592;2022-11-20T10:32:19;0.80;;;0.80;;
51995;SDS011;38010;53.264;6.592;2022-11-20T10:35:00;1.13;;;0.90;;
51995;SDS011;38010;53.264;6.592;2022-11-20T10:37:40;1.10;;;0.82;;
51995;SDS011;38010;53.264;6.592;2022-11-20T10:43:03;1.10;;;0.93;;
51995;SDS011;38010;53.264;6.592;2022-11-20T10:45:52;1.23;;;1.02;;
51995;SDS011;38010;53.264;6.592;2022-11-20T10:48:24;1.40;;;1.10;;
51995;SDS011;38010;53.264;6.592;2022-11-20T10:56:15;0.95;;;0.85;;
51995;SDS011;38010;53.264;6.592;2022-11-20T11:01:43;1.00;;;0.90;;
51995;SDS011;38010;53.264;6.592;2022-11-20T11:04:19;1.00;;;0.90;;
51995;SDS011;38010;53.264;6.592;2022-11-20T11:09:35;1.70;;;0.88;;
51995;SDS011;38010;53.264;6.592;2022-11-20T11:12:06;1.20;;;1.10;;
51995;SDS011;38010;53.264;6.592;2022-11-20T11:14:51;0.85;;;0.82;;
51995;SDS011;38010;53.264;6.592;2022-11-20T11:22:31;2.92;;;1.30;;
51995;SDS011;38010;53.264;6.592;2022-11-20T11:24:59;1.30;;;1.10;;
51995;SDS011;38010;53.264;6.592;2022-11-20T11:27:25;1.35;;;0.98;;
51995;SDS011;38010;53.264;6.592;2022-11-20T11:30:00;1.73;;;0.98;;
51995;SDS011;38010;53.264;6.592;2022-11-20T11:32:46;0.95;;;0.85;;
51995;SDS011;38010;53.264;6.592;2022-11-20T11:35:20;1.60;;;1.13;;
51995;SDS011;38010;53.264;6.592;2022-11-20T11:37:52;1.65;;;1.00;;
51995;SDS011;38010;53.264;6.592;2022-11-20T11:40:48;1.15;;;0.80;;
51995;SDS011;38010;53.264;6.592;2022-11-20T11:43:19;1.30;;;1.10;;
51995;SDS011;38010;53.264;6.592;2022-11-20T11:48:57;1.35;;;1.25;;
51995;SDS011;38010;53.264;6.592;2022-11-20T11:51:56;1.20;;;1.00;;
51995;SDS011;38010;53.264;6.592;2022-11-20T11:54:24;2.03;;;1.10;;
51995;SDS011;38010;53.264;6.592;2022-11-20T11:56:54;1.42;;;1.13;;
51995;SDS011;38010;53.264;6.592;2022-11-20T11:59:23;1.30;;;1.17;;
51995;SDS011;38010;53.264;6.592;2022-11-20T12:02:00;0.80;;;0.80;;
51995;SDS011;38010;53.264;6.592;2022-11-20T12:07:18;2.03;;;1.20;;
51995;SDS011;38010;53.264;6.592;2022-11-20T12:09:49;1.13;;;1.02;;
51995;SDS011;38010;53.264;6.592;2022-11-20T12:12:20;1.10;;;0.98;;
51995;SDS011;38010;53.264;6.592;2022-11-20T12:14:54;1.10;;;0.88;;
51995;SDS011;38010;53.264;6.592;2022-11-20T12:17:21;0.98;;;0.88;;
51995;SDS011;38010;53.264;6.592;2022-11-20T12:19:47;1.40;;;1.00;;
51995;SDS011;38010;53.264;6.592;2022-11-20T12:30:47;0.90;;;0.90;;
51995;SDS011;38010;53.264;6.592;2022-11-20T12:33:40;1.00;;;0.90;;
51995;SDS011;38010;53.264;6.592;2022-11-20T12:39:34;1.15;;;1.05;;
51995;SDS011;38010;53.264;6.592;2022-11-20T12:48:11;0.80;;;0.80;;
51995;SDS011;38010;53.264;6.592;2022-11-20T13:01:45;0.95;;;0.90;;
51995;SDS011;38010;53.264;6.592;2022-11-20T13:07:05;0.70;;;0.70;;
51995;SDS011;38010;53.264;6.592;2022-11-20T13:09:42;1.02;;;0.80;;
51995;SDS011;38010;53.264;6.592;2022-11-20T13:12:13;1.02;;;0.93;;
51995;SDS011;38010;53.264;6.592;2022-11-20T13:17:47;1.08;;;0.80;;
51995;SDS011;38010;53.264;6.592;2022-11-20T13:20:27;0.77;;;0.73;;
51995;SDS011;38010;53.264;6.592;2022-11-20T13:22:55;0.85;;;0.85;;
51995;SDS011;38010;53.264;6.592;2022-11-20T13:27:49;1.15;;;0.80;;
51995;SDS011;38010;53.264;6.592;2022-11-20T13:30:17;1.05;;;0.88;;
51995;SDS011;38010;53.264;6.592;2022-11-20T13:32:48;0.77;;;0.77;;
51995;SDS011;38010;53.264;6.592;2022-11-20T13:40:29;0.73;;;0.70;;
51995;SDS011;38010;53.264;6.592;2022-11-20T13:45:53;0.90;;;0.70;;
51995;SDS011;38010;53.264;6.592;2022-11-20T13:48:29;1.00;;;0.70;;
51995;SDS011;38010;53.264;6.592;2022-11-20T14:02:37;1.38;;;0.68;;
51995;SDS011;38010;53.264;6.592;2022-11-20T14:05:02;1.00;;;0.80;;
51995;SDS011;38010;53.264;6.592;2022-11-20T14:07:40;0.77;;;0.60;;
51995;SDS011;38010;53.264;6.592;2022-11-20T14:10:21;1.35;;;0.73;;
51995;SDS011;38010;53.264;6.592;2022-11-20T14:12:54;1.25;;;0.50;;
51995;SDS011;38010;53.264;6.592;2022-11-20T14:15:25;2.00;;;0.70;;
51995;SDS011;38010;53.264;6.592;2022-11-20T14:17:51;0.95;;;0.77;;
51995;SDS011;38010;53.264;6.592;2022-11-20T14:20:17;1.65;;;0.60;;
51995;SDS011;38010;53.264;6.592;2022-11-20T14:22:51;1.27;;;0.65;;
51995;SDS011;38010;53.264;6.592;2022-11-20T14:27:50;0.60;;;0.60;;
51995;SDS011;38010;53.264;6.592;2022-11-20T14:30:24;1.20;;;0.70;;
51995;SDS011;38010;53.264;6.592;2022-11-20T14:32:53;1.27;;;0.60;;
51995;SDS011;38010;53.264;6.592;2022-11-20T14:35:34;1.33;;;0.93;;
51995;SDS011;38010;53.264;6.592;2022-11-20T14:40:35;1.02;;;0.70;;
51995;SDS011;38010;53.264;6.592;2022-11-20T14:43:01;0.75;;;0.75;;
51995;SDS011;38010;53.264;6.592;2022-11-20T14:45:41;0.57;;;0.57;;
51995;SDS011;38010;53.264;6.592;2022-11-20T14:48:08;1.10;;;0.80;;
51995;SDS011;38010;53.264;6.592;2022-11-20T14:50:35;0.70;;;0.70;;
51995;SDS011;38010;53.264;6.592;2022-11-20T14:53:03;0.50;;;0.50;;
51995;SDS011;38010;53.264;6.592;2022-11-20T14:55:30;0.95;;;0.77;;
51995;SDS011;38010;53.264;6.592;2022-11-20T14:58:20;0.70;;;0.70;;
51995;SDS011;38010;53.264;6.592;2022-11-20T15:00:55;1.70;;;0.70;;
51995;SDS011;38010;53.264;6.592;2022-11-20T15:03:22;0.93;;;0.70;;
51995;SDS011;38010;53.264;6.592;2022-11-20T15:05:49;1.17;;;0.68;;
51995;SDS011;38010;53.264;6.592;2022-11-20T15:08:16;0.90;;;0.70;;
51995;SDS011;38010;53.264;6.592;2022-11-20T15:10:45;0.75;;;0.65;;
51995;SDS011;38010;53.264;6.592;2022-11-20T15:13:14;0.60;;;0.50;;
51995;SDS011;38010;53.264;6.592;2022-11-20T15:15:55;0.93;;;0.65;;
51995;SDS011;38010;53.264;6.592;2022-11-20T15:20:47;0.55;;;0.55;;
51995;SDS011;38010;53.264;6.592;2022-11-20T15:23:15;0.60;;;0.60;;
51995;SDS011;38010;53.264;6.592;2022-11-20T15:25:45;0.82;;;0.70;;
51995;SDS011;38010;53.264;6.592;2022-11-20T15:28:19;0.75;;;0.60;;
51995;SDS011;38010;53.264;6.592;2022-11-20T15:30:48;1.45;;;0.68;;
51995;SDS011;38010;53.264;6.592;2022-11-20T15:33:15;0.85;;;0.75;;
51995;SDS011;38010;53.264;6.592;2022-11-20T15:35:41;0.88;;;0.70;;
51995;SDS011;38010;53.264;6.592;2022-11-20T15:38:08;0.77;;;0.60;;
51995;SDS011;38010;53.264;6.592;2022-11-20T15:40:33;0.82;;;0.77;;
51995;SDS011;38010;53.264;6.592;2022-11-20T15:42:59;1.50;;;0.80;;
51995;SDS011;38010;53.264;6.592;2022-11-20T15:45:29;0.77;;;0.77;;
51995;SDS011;38010;53.264;6.592;2022-11-20T15:48:01;0.98;;;0.73;;
51995;SDS011;38010;53.264;6.592;2022-11-20T15:50:29;1.40;;;0.77;;
51995;SDS011;38010;53.264;6.592;2022-11-20T15:53:01;0.70;;;0.70;;
51995;SDS011;38010;53.264;6.592;2022-11-20T15:55:27;0.73;;;0.70;;
51995;SDS011;38010;53.264;6.592;2022-11-20T15:57:53;0.75;;;0.70;;
51995;SDS011;38010;53.264;6.592;2022-11-20T16:00:18;2.35;;;0.80;;
51995;SDS011;38010;53.264;6.592;2022-11-20T16:02:45;1.95;;;0.68;;
51995;SDS011;38010;53.264;6.592;2022-11-20T16:05:11;0.80;;;0.75;;
51995;SDS011;38010;53.264;6.592;2022-11-20T16:07:37;1.00;;;0.80;;
51995;SDS011;38010;53.264;6.592;2022-11-20T16:10:04;1.50;;;0.60;;
51995;SDS011;38010;53.264;6.592;2022-11-20T16:12:30;0.90;;;0.80;;
51995;SDS011;38010;53.264;6.592;2022-11-20T16:15:14;0.95;;;0.80;;
51995;SDS011;38010;53.264;6.592;2022-11-20T16:17:59;0.90;;;0.80;;
51995;SDS011;38010;53.264;6.592;2022-11-20T16:20:25;0.70;;;0.70;;
51995;SDS011;38010;53.264;6.592;2022-11-20T16:22:51;1.50;;;0.70;;
51995;SDS011;38010;53.264;6.592;2022-11-20T16:25:17;1.40;;;0.88;;
51995;SDS011;38010;53.264;6.592;2022-11-20T16:27:43;0.90;;;0.80;;
51995;SDS011;38010;53.264;6.592;2022-11-20T16:30:10;0.95;;;0.75;;
51995;SDS011;38010;53.264;6.592;2022-11-20T16:32:35;0.77;;;0.77;;
51995;SDS011;38010;53.264;6.592;2022-11-20T16:35:03;0.70;;;0.70;;
51995;SDS011;38010;53.264;6.592;2022-11-20T16:37:32;1.20;;;0.80;;
51995;SDS011;38010;53.264;6.592;2022-11-20T16:39:58;0.75;;;0.70;;
51995;SDS011;38010;53.264;6.592;2022-11-20T16:42:23;1.30;;;0.80;;
51995;SDS011;38010;53.264;6.592;2022-11-20T16:44:49;0.80;;;0.70;;
51995;SDS011;38010;53.264;6.592;2022-11-20T16:47:15;1.92;;;0.90;;
51995;SDS011;38010;53.264;6.592;2022-11-20T16:49:41;1.58;;;0.77;;
51995;SDS011;38010;53.264;6.592;2022-11-20T16:52:07;1.17;;;0.90;;